createdAt,value
2022-11-05T00:02:08.478Z,73.80
2022-11-05T00:06:23.543Z,73.80
2022-11-05T00:10:18.898Z,73.80
2022-11-05T00:14:22.547Z,73.90
2022-11-05T00:18:05.778Z,73.80
2022-11-05T00:22:06.410Z,73.90
2022-11-05T00:25:59.592Z,73.90
2022-11-05T00:29:41.602Z,74.20
2022-11-05T00:33:23.485Z,73.90
2022-11-05T00:37:05.500Z,74.00
2022-11-05T00:40:47.556Z,73.90
2022-11-05T00:44:47.946Z,74.00
2022-11-05T00:48:48.585Z,74.10
2022-11-05T00:52:49.402Z,74.10
2022-11-05T00:56:31.339Z,74.10
2022-11-05T01:00:13.963Z,74.10
2022-11-05T01:03:56.061Z,74.10
2022-11-05T01:07:38.091Z,74.10
2022-11-05T01:15:42.067Z,74.10
2022-11-05T01:19:30.560Z,74.30
2022-11-05T01:23:14.111Z,74.20
2022-11-05T01:26:56.086Z,74.30
2022-11-05T01:30:38.438Z,74.30
2022-11-05T01:34:20.320Z,74.30
2022-11-05T01:38:02.371Z,74.30
2022-11-05T01:41:44.440Z,74.40
2022-11-05T01:45:28.065Z,74.50
2022-11-05T01:49:22.996Z,74.60
2022-11-05T01:53:36.174Z,74.80
2022-11-05T01:57:18.363Z,75.00
2022-11-05T02:01:05.129Z,74.70
2022-11-05T02:04:52.341Z,74.80
2022-11-05T02:09:05.857Z,74.80
2022-11-05T02:12:57.400Z,75.00
2022-11-05T02:16:43.387Z,74.90
2022-11-05T02:20:32.426Z,74.90
2022-11-05T02:24:52.027Z,75.00
2022-11-05T02:29:04.798Z,75.20
2022-11-05T02:32:55.840Z,75.20
2022-11-05T02:36:46.220Z,75.00
2022-11-05T02:40:34.571Z,75.30
2022-11-05T02:44:45.116Z,75.10
2022-11-05T02:48:48.516Z,75.60
2022-11-05T02:52:48.569Z,75.50
2022-11-05T02:56:35.291Z,75.70
2022-11-05T03:00:35.995Z,75.40
2022-11-05T03:04:21.979Z,75.90
2022-11-05T03:08:16.323Z,75.50
2022-11-05T03:12:35.094Z,75.80
2022-11-05T03:16:28.592Z,76.00
2022-11-05T03:20:20.314Z,75.70
2022-11-05T03:24:22.728Z,76.00
2022-11-05T03:28:07.572Z,76.40
2022-11-05T03:31:52.375Z,75.80
2022-11-05T03:35:45.396Z,75.90
2022-11-05T03:39:32.057Z,76.10
2022-11-05T03:43:17.458Z,76.00
2022-11-05T03:47:09.141Z,76.00
2022-11-05T03:51:19.294Z,76.10
2022-11-05T03:55:01.358Z,76.50
2022-11-05T03:58:45.027Z,76.00
2022-11-05T04:02:27.838Z,76.10
2022-11-05T04:06:29.457Z,76.10
2022-11-05T04:10:30.438Z,76.10
2022-11-05T04:14:12.364Z,76.20
2022-11-05T04:17:55.861Z,76.40
2022-11-05T04:21:56.552Z,76.50
2022-11-05T04:25:38.407Z,76.60
2022-11-05T04:29:38.855Z,76.70
2022-11-05T04:33:20.812Z,76.80
2022-11-05T04:37:02.872Z,77.00
2022-11-05T04:40:46.334Z,77.20
2022-11-05T04:44:28.822Z,77.30
2022-11-05T04:48:11.493Z,77.50
2022-11-05T04:51:53.602Z,77.70
2022-11-05T04:55:35.490Z,77.90
2022-11-05T04:59:18.073Z,78.10
2022-11-05T05:03:01.795Z,78.20
2022-11-05T05:06:44.003Z,78.40
2022-11-05T05:10:26.187Z,78.40
2022-11-05T05:14:08.902Z,78.60
2022-11-05T05:17:54.247Z,78.70
2022-11-05T05:21:39.355Z,78.90
2022-11-05T05:25:25.141Z,78.90
2022-11-05T05:29:07.358Z,79.00
2022-11-05T05:32:49.820Z,79.10
2022-11-05T05:36:31.922Z,79.10
2022-11-05T05:40:13.791Z,79.20
2022-11-05T05:43:55.629Z,79.30
2022-11-05T05:47:37.681Z,79.40
2022-11-05T05:51:20.088Z,79.50
2022-11-05T05:55:01.974Z,79.60
2022-11-05T05:58:43.841Z,79.70
2022-11-05T06:02:25.880Z,79.80
2022-11-05T06:06:10.447Z,79.90
2022-11-05T06:09:52.366Z,80.00
2022-11-05T06:13:34.851Z,80.10
2022-11-05T06:17:16.795Z,80.20
2022-11-05T06:21:10.567Z,80.40
2022-11-05T06:24:53.874Z,81.30
2022-11-05T06:28:36.675Z,80.50
2022-11-05T06:36:16.916Z,80.70
2022-11-05T06:39:58.857Z,80.70
2022-11-05T06:43:41.099Z,80.80
2022-11-05T06:47:23.123Z,80.90
2022-11-05T06:51:06.375Z,81.00
2022-11-05T06:54:48.235Z,81.10
2022-11-05T06:58:31.049Z,81.20
2022-11-05T07:02:13.948Z,81.30
2022-11-05T07:05:58.776Z,81.40
2022-11-05T07:09:43.229Z,81.50
2022-11-05T07:13:26.308Z,81.60
2022-11-05T07:17:08.278Z,81.70
2022-11-05T07:20:50.101Z,81.90
2022-11-05T07:24:31.983Z,82.00
2022-11-05T07:28:14.613Z,82.10
2022-11-05T07:31:56.847Z,82.20
2022-11-05T07:35:38.711Z,82.30
2022-11-05T07:39:22.391Z,82.40
2022-11-05T07:43:04.381Z,82.60
2022-11-05T07:46:46.345Z,82.60
2022-11-05T07:50:46.567Z,82.70
2022-11-05T07:54:28.690Z,84.50
2022-11-05T07:58:14.973Z,82.80
2022-11-05T08:01:57.098Z,82.90
2022-11-05T08:05:48.090Z,82.90
2022-11-05T08:09:33.922Z,82.90
2022-11-05T08:13:16.283Z,83.20
2022-11-05T08:16:58.807Z,83.20
2022-11-05T08:20:41.910Z,83.20
2022-11-05T08:37:56.930Z,84.00
2022-11-05T08:42:43.929Z,84.80
2022-11-05T08:50:59.359Z,83.60
2022-11-05T09:04:06.731Z,84.10
2022-11-05T09:16:14.307Z,83.20
2022-11-05T09:19:56.375Z,83.30
2022-11-05T09:28:19.758Z,83.60
2022-11-05T09:36:21.086Z,83.80
2022-11-05T09:40:31.684Z,83.90
2022-11-05T09:44:26.784Z,83.90
2022-11-05T09:52:21.806Z,84.60
2022-11-05T10:00:51.346Z,85.70
2022-11-05T10:04:44.548Z,84.90
2022-11-05T10:14:34.773Z,86.10
2022-11-05T10:23:30.557Z,85.80
2022-11-05T10:39:43.637Z,85.90
2022-11-05T10:58:03.011Z,87.40
2022-11-05T11:07:14.406Z,87.50
2022-11-05T11:15:53.308Z,86.80
2022-11-05T11:19:43.921Z,86.80
2022-11-05T11:23:28.334Z,86.90
2022-11-05T11:27:52.546Z,87.00
2022-11-05T11:32:06.428Z,87.70
2022-11-05T11:36:49.384Z,87.70
2022-11-05T11:40:39.130Z,87.80
2022-11-05T11:44:59.520Z,87.50
2022-11-05T11:48:48.588Z,87.80
2022-11-05T11:52:40.620Z,87.40
2022-11-05T11:56:36.097Z,87.80
2022-11-05T12:00:23.836Z,87.40
2022-11-05T12:04:37.250Z,87.60
2022-11-05T12:08:41.640Z,87.90
2022-11-05T12:17:51.640Z,88.20
2022-11-05T12:21:53.452Z,88.00
2022-11-05T12:26:06.616Z,87.80
2022-11-05T12:30:33.767Z,87.90
2022-11-05T12:34:43.852Z,88.40
2022-11-05T12:38:45.357Z,88.20
2022-11-05T12:43:11.726Z,88.50
2022-11-05T12:46:57.002Z,88.50
2022-11-05T12:50:48.211Z,88.20
2022-11-05T12:54:46.070Z,88.60
2022-11-05T12:58:37.470Z,88.50
2022-11-05T13:02:47.598Z,88.60
2022-11-05T13:06:40.380Z,88.90
2022-11-05T13:10:57.072Z,88.80
2022-11-05T13:14:57.989Z,89.00
2022-11-05T13:18:53.873Z,88.90
2022-11-05T13:23:02.613Z,89.10
2022-11-05T13:27:16.169Z,89.10
2022-11-05T13:31:34.727Z,89.10
2022-11-05T13:35:34.098Z,89.70
2022-11-05T13:39:53.485Z,89.30
2022-11-05T13:44:05.536Z,89.60
2022-11-05T13:52:48.488Z,89.70
2022-11-05T13:56:55.222Z,89.80
2022-11-05T14:01:16.548Z,89.70
2022-11-05T14:05:12.031Z,89.80
2022-11-05T14:09:05.834Z,89.50
2022-11-05T14:12:52.068Z,89.60
2022-11-05T14:17:10.239Z,89.70
2022-11-05T14:21:36.588Z,90.10
2022-11-05T14:25:21.648Z,90.20
2022-11-05T14:29:27.201Z,89.70
2022-11-05T14:33:29.062Z,90.20
2022-11-05T14:37:29.655Z,90.20
2022-11-05T14:41:11.762Z,90.20
2022-11-05T14:45:22.084Z,89.90
2022-11-05T14:49:09.468Z,90.30
2022-11-05T14:52:55.367Z,90.10
2022-11-05T14:56:50.533Z,90.10
2022-11-05T15:00:36.935Z,90.20
2022-11-05T15:04:33.133Z,90.10
2022-11-05T15:08:39.820Z,90.50
2022-11-05T15:12:59.960Z,90.50
2022-11-05T15:16:54.083Z,90.60
2022-11-05T15:20:48.484Z,90.50
2022-11-05T15:24:34.481Z,90.30
2022-11-05T15:28:26.584Z,90.30
2022-11-05T15:32:18.927Z,90.30
2022-11-05T15:36:26.861Z,90.40
2022-11-05T15:40:24.222Z,90.70
2022-11-05T15:44:06.077Z,90.70
2022-11-05T15:47:54.013Z,90.50
2022-11-05T15:51:36.394Z,90.60
2022-11-05T15:55:22.768Z,90.50
2022-11-05T15:59:25.799Z,90.60
2022-11-05T16:03:36.999Z,90.90
2022-11-05T16:07:47.289Z,91.00
2022-11-05T16:16:32.787Z,90.60
2022-11-05T16:20:41.465Z,91.00
2022-11-05T16:28:49.788Z,90.60
2022-11-05T16:32:33.018Z,90.80
2022-11-05T16:36:20.706Z,90.60
2022-11-05T16:40:03.925Z,90.60
2022-11-05T16:43:57.649Z,90.60
2022-11-05T16:47:40.483Z,90.80
2022-11-05T16:51:27.179Z,90.60
2022-11-05T16:55:13.452Z,90.60
2022-11-05T16:58:56.031Z,90.60
2022-11-05T17:02:38.217Z,90.60
2022-11-05T17:06:24.715Z,90.60
2022-11-05T17:10:07.641Z,90.60
2022-11-05T17:14:01.747Z,90.60
2022-11-05T17:17:45.335Z,90.80
2022-11-05T17:21:29.389Z,90.60
2022-11-05T17:25:11.447Z,90.60
2022-11-05T17:28:54.065Z,90.50
2022-11-05T17:32:41.808Z,90.60
2022-11-05T17:36:24.324Z,90.60
2022-11-05T17:40:09.170Z,90.60
2022-11-05T17:44:00.401Z,90.50
2022-11-05T17:51:42.835Z,90.50
2022-11-05T17:55:25.814Z,90.50
2022-11-05T17:59:08.376Z,90.40
2022-11-05T18:02:53.461Z,90.50
2022-11-05T18:06:36.418Z,90.60
2022-11-05T18:10:20.046Z,90.60
2022-11-05T18:14:02.764Z,90.70
2022-11-05T18:17:48.044Z,90.70
2022-11-05T18:21:30.754Z,90.70
2022-11-05T18:25:14.294Z,90.70
2022-11-05T18:28:56.653Z,90.70
2022-11-05T18:32:40.236Z,90.80
2022-11-05T18:36:25.405Z,90.80
2022-11-05T18:40:08.224Z,90.90
2022-11-05T18:43:50.866Z,90.90
2022-11-05T18:47:34.706Z,90.90
2022-11-05T18:51:17.177Z,91.00
2022-11-05T18:54:59.703Z,91.00
2022-11-05T18:58:42.760Z,91.00
2022-11-05T19:02:24.983Z,91.00
2022-11-05T19:06:07.459Z,91.00
2022-11-05T19:09:49.835Z,91.10
2022-11-05T19:13:32.184Z,91.10
2022-11-05T19:17:17.751Z,91.10
2022-11-05T19:21:00.985Z,91.10
2022-11-05T19:24:43.809Z,91.10
2022-11-05T19:28:25.913Z,91.00
2022-11-05T19:32:09.508Z,91.00
2022-11-05T19:35:51.631Z,91.00
2022-11-05T19:39:34.058Z,91.00
2022-11-05T19:43:16.462Z,91.00
2022-11-05T19:46:58.532Z,91.00
2022-11-05T19:50:44.555Z,90.90
2022-11-05T19:54:26.563Z,90.90
2022-11-05T19:58:09.105Z,90.90
2022-11-05T20:01:51.545Z,90.90
2022-11-05T20:05:34.297Z,90.90
2022-11-05T20:09:23.554Z,90.90
2022-11-05T20:13:06.031Z,90.80
2022-11-05T20:16:49.255Z,90.80
2022-11-05T20:20:32.244Z,90.80
2022-11-05T20:24:24.347Z,90.70
2022-11-05T20:28:07.411Z,90.70
2022-11-05T20:31:50.452Z,90.60
2022-11-05T20:35:32.619Z,90.60
2022-11-05T20:39:14.919Z,90.40
2022-11-05T20:42:58.313Z,90.40
2022-11-05T20:46:40.462Z,90.40
2022-11-05T20:50:22.456Z,90.40
2022-11-05T20:54:05.126Z,90.50
2022-11-05T20:57:47.996Z,90.40
2022-11-05T21:01:34.505Z,90.40
2022-11-05T21:05:16.744Z,90.40
2022-11-05T21:09:00.093Z,90.40
2022-11-05T21:12:42.908Z,90.30
2022-11-05T21:16:25.243Z,90.30
2022-11-05T21:20:09.434Z,90.40
2022-11-05T21:23:51.771Z,90.40
2022-11-05T21:27:33.772Z,90.30
2022-11-05T21:31:15.801Z,90.40
2022-11-05T21:34:57.858Z,90.40
2022-11-05T21:38:40.818Z,90.40
2022-11-05T21:42:23.188Z,90.40
2022-11-05T21:46:05.392Z,90.40
2022-11-05T21:49:47.582Z,90.40
2022-11-05T21:53:48.349Z,90.30
2022-11-05T21:57:48.877Z,90.20
2022-11-05T22:01:32.823Z,90.20
2022-11-05T22:05:14.978Z,90.20
2022-11-05T22:08:57.152Z,90.20
2022-11-05T22:12:39.163Z,90.20
2022-11-05T22:16:21.293Z,90.00
2022-11-05T22:20:05.696Z,90.00
2022-11-05T22:23:47.797Z,90.00
2022-11-05T22:27:29.792Z,90.10
2022-11-05T22:31:13.881Z,90.10
2022-11-05T22:34:55.958Z,90.00
2022-11-05T22:38:38.089Z,90.00
2022-11-05T22:42:20.220Z,89.90
2022-11-05T22:46:07.551Z,89.90
2022-11-05T22:49:50.589Z,89.90
2022-11-05T22:53:35.307Z,89.90
2022-11-05T22:57:17.390Z,89.90
2022-11-05T23:00:59.788Z,89.90
2022-11-05T23:04:42.008Z,90.00
2022-11-05T23:08:42.797Z,90.10
2022-11-05T23:12:32.613Z,90.10
2022-11-05T23:16:41.539Z,90.10
2022-11-05T23:20:42.509Z,90.00
2022-11-05T23:24:24.667Z,89.90
2022-11-05T23:28:10.096Z,89.90
2022-11-05T23:32:11.754Z,90.00
2022-11-05T23:36:12.672Z,90.00
2022-11-05T23:39:54.964Z,89.90
2022-11-05T23:43:55.648Z,89.80
2022-11-05T23:47:56.450Z,89.70
2022-11-05T23:51:38.420Z,89.60
2022-11-05T23:55:21.593Z,89.50
2022-11-05T23:59:04.971Z,89.60
